logo
Rechercher aéroport 
image banner adimage banner adimage banner ad
image banner ad

NWWE - Ile Des Pins Moue

Situé à Kuto, New Caledonia

ICAO - NWWE, IATA - ILP

Données fournies par Airmate  

Information générale

Coordonnées: S22°35'19" E167°27'19"
Élévation : 317 feet MSL.
Variation magnétique : 12.72° East
Voir autres Aéroports à (unassigned)

Données opérationnelles

Special qualification required
Heure actuelle UTC:
Heure actuelle locale:
Météo
TAF: TAF AMD NWWE 011812Z 0118/0218 04005KT 9999 FEW025 SCT040 BKN070 TEMPO 0118/0203 SHRA SCT016TCU PROB30 TEMPO 0118/0123 4500 SHRA BKN014 FEW018CB
Voir NOTAMs / SUP AIP / TFR affectant cet aéroport [VIEW]
Fréquences de communication: [VIEW]

Pistes:

Identifiant RWYQFULongueur (ft)Largeur (ft)SurfaceLDA (ft)
10114°410198ASPH4101
28294°410198ASPH4101

Coordonnées de l'aéroport

Adresse: Kuto New Caledonia

Vue satellite de NWWE